Time;durP1;ratioP1;P1;durP2;ratioP2;P2;SDS_P1;SDS_P2;PMS_P1;PMS_P2;Temp;Humidity;BMP_temperature;BMP_pressure;BME280_temperature;BME280_humidity;BME280_pressure;Samples;Min_cycle;Max_cycle;Signal;HPM_P1;HPM_P2
2023/03/12 00:04:09;;;;;;;1.48;1.13;;;;;;;20.24;45.05;96311.34;10513804;28;20041;-73
2023/03/12 00:09:28;;;;;;;2.00;1.10;;;;;;;20.24;44.97;96316.75;10513474;28;20416;-73
2023/03/12 00:14:47;;;;;;;1.20;1.00;;;;;;;20.24;44.83;96313.28;10513251;28;20377;-73
2023/03/12 00:20:07;;;;;;;1.58;1.08;;;;;;;20.22;44.78;96310.91;10483813;28;20047;-73
2023/03/12 00:25:27;;;;;;;1.65;1.38;;;;;;;20.21;44.87;96317.47;10497815;28;20036;-73
2023/03/12 00:30:46;;;;;;;1.98;1.13;;;;;;;20.21;44.79;96325.56;10512632;28;20078;-73
2023/03/12 00:36:06;;;;;;;1.42;0.98;;;;;;;20.22;44.84;96331.78;10512439;28;20052;-73
2023/03/12 00:41:26;;;;;;;1.10;1.00;;;;;;;20.20;44.69;96325.91;10497142;28;20098;-73
2023/03/12 00:46:46;;;;;;;1.92;1.02;;;;;;;20.19;44.65;96337.84;10512203;28;20036;-73
2023/03/12 00:52:06;;;;;;;1.25;1.05;;;;;;;20.18;45.00;96347.09;10489795;28;20053;-73
2023/03/12 00:57:25;;;;;;;1.52;0.93;;;;;;;20.17;44.60;96337.41;10496736;28;20037;-73
2023/03/12 01:02:45;;;;;;;1.38;1.02;;;;;;;20.16;44.59;96350.13;10482296;28;20045;-73
2023/03/12 01:08:08;;;;;;;1.45;0.95;;;;;;;20.15;44.51;96346.66;10496399;28;20403;-74
2023/03/12 01:13:27;;;;;;;1.20;0.95;;;;;;;20.14;44.44;96344.28;10511239;28;20040;-73
2023/03/12 01:18:47;;;;;;;1.02;0.93;;;;;;;20.11;44.47;96347.66;10481906;28;20049;-73
2023/03/12 01:24:07;;;;;;;1.35;0.90;;;;;;;20.10;44.33;96341.47;10495848;28;20044;-73
2023/03/12 01:29:27;;;;;;;1.23;0.95;;;;;;;20.09;44.36;96349.91;10495806;28;20048;-73
2023/03/12 01:34:46;;;;;;;1.77;1.13;;;;;;;20.07;44.33;96355.66;10481694;28;20040;-73
2023/03/12 01:40:06;;;;;;;1.17;0.98;;;;;;;20.07;44.28;96349.44;10481439;28;20172;-73
2023/03/12 01:46:00;;;;;;;1.30;1.00;;;;;;;20.05;44.19;96359.81;10481372;28;20089;-73
2023/03/12 01:51:21;;;;;;;1.13;0.95;;;;;;;20.03;44.29;96346.66;10490561;28;20409;-73
2023/03/12 01:56:41;;;;;;;1.17;1.08;;;;;;;20.02;43.89;96347.78;10481240;28;20416;-73
2023/03/12 02:02:03;;;;;;;1.25;0.93;;;;;;;20.01;44.14;96359.69;10495355;28;20041;-77
2023/03/12 02:07:22;;;;;;;0.88;0.80;;;;;;;20.00;44.10;96365.47;10488546;28;20045;-78
2023/03/12 02:12:42;;;;;;;1.40;1.00;;;;;;;19.99;43.95;96366.56;10518134;28;20056;-78
2023/03/12 02:18:03;;;;;;;2.17;1.00;;;;;;;19.95;44.10;96364.56;10488988;28;20036;-78
2023/03/12 02:23:30;;;;;;;1.08;0.85;;;;;;;19.94;44.01;96368.38;10518028;28;20044;-77
2023/03/12 02:28:53;;;;;;;1.02;0.90;;;;;;;19.93;44.08;96369.53;10488704;28;20059;-78
2023/03/12 02:34:13;;;;;;;1.23;1.10;;;;;;;19.91;43.82;96369.03;10502287;28;20043;-78
2023/03/12 02:39:32;;;;;;;1.15;0.90;;;;;;;19.90;43.61;96374.81;10502200;28;20094;-77
2023/03/12 02:44:52;;;;;;;1.02;0.70;;;;;;;19.88;43.89;96383.25;10476284;28;20045;-77
2023/03/12 02:50:12;;;;;;;1.35;0.95;;;;;;;19.86;44.08;96388.19;10473609;28;20060;-77
2023/03/12 02:55:32;;;;;;;0.77;0.77;;;;;;;19.84;43.97;96393.16;10460053;28;20443;-77
2023/03/12 03:00:52;;;;;;;1.20;0.90;;;;;;;19.83;43.81;96396.97;10474807;28;20413;-77
2023/03/12 03:06:12;;;;;;;0.68;0.68;;;;;;;19.82;43.89;96395.41;10459561;28;20045;-77
2023/03/12 03:11:32;;;;;;;0.77;0.77;;;;;;;19.81;43.93;96396.53;10459468;28;20041;-77
2023/03/12 03:16:54;;;;;;;1.20;0.73;;;;;;;19.77;43.83;96398.31;10444296;28;20040;-77
2023/03/12 03:22:15;;;;;;;1.58;0.95;;;;;;;19.76;43.85;96402.16;10458828;28;20037;-77
2023/03/12 03:27:35;;;;;;;1.10;0.80;;;;;;;19.75;43.89;96411.38;10473836;28;20404;-77
2023/03/12 03:32:55;;;;;;;1.33;0.90;;;;;;;19.73;43.85;96419.03;10473620;28;20049;-77
2023/03/12 03:38:15;;;;;;;1.00;0.90;;;;;;;19.71;43.76;96418.53;10473396;28;20041;-77
2023/03/12 03:43:35;;;;;;;0.98;0.82;;;;;;;19.69;43.82;96415.38;10444310;28;20041;-77
2023/03/12 03:48:55;;;;;;;0.90;0.80;;;;;;;19.68;43.71;96417.31;10472994;28;20095;-77
2023/03/12 03:54:16;;;;;;;0.70;0.70;;;;;;;19.67;43.76;96425.75;10444952;28;20049;-77
2023/03/12 03:59:37;;;;;;;0.75;0.70;;;;;;;19.66;43.76;96427.66;10443684;28;20045;-77
2023/03/12 04:04:57;;;;;;;1.23;0.73;;;;;;;19.64;43.71;96434.50;10457326;28;20041;-77
2023/03/12 04:10:20;;;;;;;2.20;0.90;;;;;;;19.62;43.59;96442.97;10457064;28;20049;-77
2023/03/12 04:15:45;;;;;;;0.80;0.80;;;;;;;19.60;43.63;96445.22;10442926;28;20064;-77
2023/03/12 04:21:07;;;;;;;0.88;0.70;;;;;;;19.58;43.66;96446.66;10442810;28;20044;-77
2023/03/12 04:26:27;;;;;;;1.08;0.95;;;;;;;19.56;43.51;96458.59;10442247;28;20045;-77
2023/03/12 04:31:47;;;;;;;0.98;0.70;;;;;;;19.54;43.60;96455.44;10456327;28;20099;-77
2023/03/12 04:37:10;;;;;;;0.90;0.70;;;;;;;19.53;43.73;96459.25;10456133;28;20044;-77
2023/03/12 04:42:30;;;;;;;0.80;0.80;;;;;;;19.51;43.53;96464.19;10470833;28;20071;-77
2023/03/12 04:47:50;;;;;;;0.95;0.85;;;;;;;19.50;43.62;96468.03;10470686;28;20037;-77
2023/03/12 04:53:10;;;;;;;0.98;0.88;;;;;;;19.47;43.61;96465.97;10445631;28;20057;-77
2023/03/12 04:58:30;;;;;;;0.93;0.82;;;;;;;19.46;43.60;96458.19;10441320;28;20044;-77
2023/03/12 05:03:50;;;;;;;0.75;0.75;;;;;;;19.44;43.53;96460.44;10470199;28;20048;-77
2023/03/12 05:09:10;;;;;;;0.80;0.63;;;;;;;19.42;43.52;96471.56;10455052;28;20052;-77
2023/03/12 05:14:29;;;;;;;1.00;0.90;;;;;;;19.41;43.59;96478.09;10454804;28;20481;-77
2023/03/12 05:19:49;;;;;;;0.80;0.80;;;;;;;19.39;43.48;96480.34;10469673;28;20045;-77
2023/03/12 05:25:10;;;;;;;1.50;0.80;;;;;;;19.38;43.42;96478.75;10454744;28;20052;-77
2023/03/12 05:30:29;;;;;;;0.85;0.85;;;;;;;19.36;43.42;96486.41;10440659;28;20053;-77
2023/03/12 05:35:49;;;;;;;0.80;0.65;;;;;;;19.35;43.46;96492.94;10469403;28;20045;-77
2023/03/12 05:41:25;;;;;;;1.05;0.80;;;;;;;19.32;43.49;96488.19;10446268;28;20044;-77
2023/03/12 05:46:47;;;;;;;1.07;0.80;;;;;;;19.30;43.34;96493.13;10449216;28;20041;-76
2023/03/12 05:52:07;;;;;;;1.17;0.75;;;;;;;19.29;43.44;96486.94;10441740;28;20057;-77
2023/03/12 05:57:27;;;;;;;0.80;0.80;;;;;;;19.26;43.47;96487.59;10462361;28;20091;-77
2023/03/12 06:02:47;;;;;;;0.77;0.63;;;;;;;19.26;43.49;96484.88;10482861;28;20037;-77
2023/03/12 06:08:07;;;;;;;0.80;0.70;;;;;;;19.25;43.30;96485.22;10480948;28;20044;-77
2023/03/12 06:13:27;;;;;;;0.80;0.80;;;;;;;19.23;43.54;96490.97;10480661;28;20500;-77
2023/03/12 06:19:12;;;;;;;1.00;0.85;;;;;;;19.22;43.39;96488.59;10483999;28;20504;-76
2023/03/12 06:24:32;;;;;;;0.80;0.73;;;;;;;19.20;43.73;96483.50;10461581;28;20399;-76
2023/03/12 06:29:55;;;;;;;1.00;0.90;;;;;;;19.19;43.89;96487.34;10461067;28;20045;-76
2023/03/12 06:35:15;;;;;;;0.85;0.80;;;;;;;19.18;43.89;96499.25;10462253;28;20377;-76
2023/03/12 06:40:34;;;;;;;0.90;0.73;;;;;;;19.17;43.96;96506.56;10460684;28;20037;-76
2023/03/12 06:45:55;;;;;;;0.77;0.77;;;;;;;19.17;44.21;96500.38;10475486;28;20044;-77
2023/03/12 06:51:15;;;;;;;0.95;0.80;;;;;;;19.16;44.38;96498.78;10470617;28;20124;-76
2023/03/12 06:56:35;;;;;;;0.80;0.80;;;;;;;19.15;44.38;96498.00;10446330;28;20378;-76
2023/03/12 07:01:54;;;;;;;0.80;0.80;;;;;;;19.16;44.51;96523.09;10474900;28;20060;-76
2023/03/12 07:07:15;;;;;;;0.60;0.60;;;;;;;19.16;44.53;96523.88;10474757;28;20123;-77
2023/03/12 07:12:35;;;;;;;0.65;0.65;;;;;;;19.16;44.40;96529.28;10471952;28;20405;-76
2023/03/12 07:17:59;;;;;;;0.93;0.80;;;;;;;19.18;44.43;96528.97;10496859;28;20511;-76
2023/03/12 07:23:19;;;;;;;0.95;0.70;;;;;;;19.19;44.30;96516.25;10515472;28;20048;-76
2023/03/12 07:28:38;;;;;;;0.77;0.77;;;;;;;19.22;44.42;96523.69;10503597;28;20041;-77
2023/03/12 07:33:58;;;;;;;1.10;0.90;;;;;;;19.23;44.66;96520.66;10492274;28;20040;-77
2023/03/12 07:39:18;;;;;;;0.90;0.73;;;;;;;19.24;44.80;96529.56;10458269;28;20477;-77
2023/03/12 07:44:38;;;;;;;1.35;0.93;;;;;;;19.28;44.64;96530.47;10473284;28;20045;-77
2023/03/12 07:49:59;;;;;;;0.82;0.80;;;;;;;19.29;44.68;96532.06;10471955;28;20045;-77
2023/03/12 07:55:19;;;;;;;0.98;0.80;;;;;;;19.31;44.54;96533.31;10472760;28;20128;-77
2023/03/12 08:00:38;;;;;;;1.00;0.90;;;;;;;19.34;44.60;96532.66;10471995;28;20053;-77
2023/03/12 08:06:01;;;;;;;0.93;0.80;;;;;;;19.35;44.52;96531.53;10472319;28;20123;-76
2023/03/12 08:11:20;;;;;;;0.80;0.80;;;;;;;19.40;44.48;96530.53;10443706;28;20103;-77
2023/03/12 08:16:40;;;;;;;0.90;0.80;;;;;;;19.42;44.38;96528.31;10456807;28;20045;-76
2023/03/12 08:21:59;;;;;;;1.10;1.00;;;;;;;19.44;44.17;96526.06;10456509;28;20052;-76
2023/03/12 08:27:19;;;;;;;1.10;0.85;;;;;;;19.49;44.21;96522.38;10471475;28;20467;-76
2023/03/12 08:32:38;;;;;;;3.35;2.70;;;;;;;18.77;32.14;96525.03;10456265;28;20110;-74
2023/03/12 08:37:59;;;;;;;1.70;1.60;;;;;;;18.86;38.86;96525.03;10428396;28;20068;-73
2023/03/12 08:43:19;;;;;;;2.30;1.55;;;;;;;19.10;40.55;96517.09;10470709;28;20051;-73
2023/03/12 08:48:39;;;;;;;1.60;1.50;;;;;;;19.29;40.32;96526.69;10470577;28;20049;-72
2023/03/12 08:53:59;;;;;;;2.72;1.48;;;;;;;19.39;40.43;96520.88;10429536;28;20061;-73
2023/03/12 08:59:19;;;;;;;2.05;1.70;;;;;;;19.47;40.32;96527.34;10470098;28;20045;-73
2023/03/12 09:04:39;;;;;;;2.50;1.83;;;;;;;19.53;40.25;96517.91;10470075;28;20045;-72
2023/03/12 09:09:59;;;;;;;2.15;1.80;;;;;;;19.56;40.26;96525.31;10454937;28;20071;-72
2023/03/12 09:15:18;;;;;;;2.30;1.80;;;;;;;19.61;40.59;96525.13;10490997;28;20041;-72
2023/03/12 09:20:38;;;;;;;2.55;1.90;;;;;;;19.66;40.59;96514.13;10469574;28;20059;-72
2023/03/12 09:25:57;;;;;;;2.53;1.60;;;;;;;19.70;40.78;96517.75;10469453;28;20480;-72
2023/03/12 09:31:17;;;;;;;2.20;1.80;;;;;;;19.74;40.93;96507.09;10469397;28;20049;-72
2023/03/12 09:36:36;;;;;;;1.70;1.40;;;;;;;19.77;41.08;96506.44;10469212;28;20040;-72
2023/03/12 09:41:56;;;;;;;2.22;1.67;;;;;;;19.83;41.13;96512.41;10469070;28;20041;-72
2023/03/12 09:47:24;;;;;;;2.30;1.50;;;;;;;19.85;41.31;96510.19;10453949;28;20045;-73
2023/03/12 09:52:54;;;;;;;1.73;1.50;;;;;;;19.88;41.73;96509.53;10443046;28;20075;-74
2023/03/12 09:58:18;;;;;;;2.40;1.58;;;;;;;19.90;42.25;96505.34;10474809;28;20043;-74
2023/03/12 10:03:52;;;;;;;3.00;1.60;;;;;;;19.92;42.65;96503.09;10507302;28;20040;-73
2023/03/12 10:09:17;;;;;;;4.75;1.48;;;;;;;19.94;42.61;96495.44;10511006;28;20048;-74
2023/03/12 10:14:46;;;;;;;3.03;1.38;;;;;;;19.98;43.18;96502.91;10495796;28;20044;-78
2023/03/12 10:20:24;;;;;;;1.75;1.20;;;;;;;19.99;42.22;96497.13;10509855;28;20045;-79
2023/03/12 10:26:06;;;;;;;3.72;1.50;;;;;;;19.99;42.23;96491.72;10512853;28;20040;-78
2023/03/12 10:31:35;;;;;;;3.17;1.40;;;;;;;20.01;42.00;96483.28;10517557;28;20484;-78
2023/03/12 10:37:04;;;;;;;3.35;1.65;;;;;;;20.01;42.18;96486.00;10499311;28;20041;-77
2023/03/12 10:42:28;;;;;;;4.03;1.40;;;;;;;20.02;42.30;96490.28;10502407;28;20045;-76
2023/03/12 10:47:52;;;;;;;2.60;1.55;;;;;;;19.97;35.83;96487.78;10502364;28;20044;-76
2023/03/12 10:53:22;;;;;;;2.90;1.85;;;;;;;19.66;31.92;96470.09;10465218;28;20052;-76
2023/03/12 10:58:44;;;;;;;3.63;1.40;;;;;;;19.73;37.12;96462.28;10474665;28;20408;-76
2023/03/12 11:04:12;;;;;;;4.03;1.75;;;;;;;19.81;37.67;96474.91;10475169;28;20045;-78
2023/03/12 11:09:32;;;;;;;1.98;1.70;;;;;;;19.85;37.79;96470.41;10474239;28;20095;-77
2023/03/12 11:14:52;;;;;;;3.92;1.67;;;;;;;19.88;37.76;96460.88;10475000;28;20489;-77
2023/03/12 11:20:20;;;;;;;4.20;1.50;;;;;;;19.90;37.75;96455.91;10474547;28;20051;-77
2023/03/12 11:25:40;;;;;;;2.03;1.50;;;;;;;19.90;37.92;96448.59;10474683;28;20045;-76
2023/03/12 11:30:59;;;;;;;3.28;1.75;;;;;;;19.75;30.23;96438.41;10474255;28;20045;-77
2023/03/12 11:36:49;;;;;;;2.20;1.60;;;;;;;19.54;32.46;96441.13;10472102;28;20040;-77
2023/03/12 11:42:18;;;;;;;2.30;1.50;;;;;;;19.65;35.19;96442.28;10473891;28;20555;-77
2023/03/12 11:47:49;;;;;;;1.83;1.40;;;;;;;19.72;34.33;96436.38;10472587;28;20037;-77
2023/03/12 11:53:21;;;;;;;2.55;1.38;;;;;;;19.78;35.08;96440.44;10492550;28;20110;-77
2023/03/12 11:58:49;;;;;;;2.70;1.73;;;;;;;19.79;35.87;96435.81;10499300;28;20044;-76
2023/03/12 12:04:31;;;;;;;2.55;1.45;;;;;;;19.80;36.19;96418.47;10501438;28;20097;-77
2023/03/12 12:10:01;;;;;;;2.38;1.20;;;;;;;19.81;37.16;96420.84;10514726;28;20442;-78
2023/03/12 12:15:35;;;;;;;2.25;1.40;;;;;;;19.81;38.09;96415.44;10499181;28;20041;-77
2023/03/12 12:20:57;;;;;;;1.80;1.27;;;;;;;19.81;38.45;96401.94;10471306;28;20040;-76
2023/03/12 12:26:24;;;;;;;1.90;1.17;;;;;;;19.82;39.23;96383.81;10430888;28;20069;-76
2023/03/12 12:31:47;;;;;;;1.55;1.10;;;;;;;19.82;39.89;96387.28;10466643;28;20549;-76
2023/03/12 12:37:38;;;;;;;2.75;1.35;;;;;;;19.83;40.44;96382.66;10499132;28;20044;-75
2023/03/12 12:43:20;;;;;;;2.28;1.30;;;;;;;19.83;40.84;96383.47;10512888;28;20401;-76
2023/03/12 12:49:06;;;;;;;1.30;1.00;;;;;;;19.82;40.91;96381.88;10498486;28;20048;-76
2023/03/12 12:54:50;;;;;;;1.38;1.13;;;;;;;19.82;42.18;96376.50;10498267;28;20056;-77
2023/03/12 13:00:25;;;;;;;3.08;1.35;;;;;;;19.82;42.21;96387.28;10512560;28;20101;-76
2023/03/12 13:06:00;;;;;;;1.52;1.10;;;;;;;19.82;42.83;96373.78;10512308;28;20041;-76
2023/03/12 13:11:29;;;;;;;3.27;1.37;;;;;;;19.83;42.73;96374.56;8077926;28;10001073;-76
2023/03/12 13:17:05;;;;;;;4.47;1.10;;;;;;;19.83;43.15;96367.22;10332817;28;20042;-77
2023/03/12 13:22:33;;;;;;;1.70;1.10;;;;;;;19.82;43.09;96352.16;10346569;28;20042;-76
2023/03/12 13:28:35;;;;;;;1.97;1.40;;;;;;;19.81;43.25;96355.97;10346711;28;20541;-77
2023/03/12 13:33:59;;;;;;;2.63;1.50;;;;;;;19.81;43.25;96364.09;10331503;28;20062;-77
2023/03/12 13:39:29;;;;;;;2.10;1.27;;;;;;;19.80;43.53;96345.50;10332748;28;20042;-76
2023/03/12 13:44:49;;;;;;;1.45;1.30;;;;;;;19.79;43.57;96339.31;10347079;28;20038;-77
2023/03/12 13:50:14;;;;;;;2.30;1.30;;;;;;;19.81;43.86;96336.28;10317231;28;20058;-78
2023/03/12 13:55:35;;;;;;;3.15;1.35;;;;;;;19.78;43.85;96335.03;10345469;28;20053;-76
2023/03/12 14:01:01;;;;;;;3.85;1.73;;;;;;;19.78;43.94;96345.84;10348864;28;20046;-77
2023/03/12 14:06:26;;;;;;;3.53;1.60;;;;;;;19.77;43.92;96333.44;10354762;28;20046;-76
2023/03/12 14:11:51;;;;;;;2.25;1.48;;;;;;;19.77;44.19;96325.34;10340031;28;20047;-76
2023/03/12 14:17:17;;;;;;;4.03;2.00;;;;;;;19.76;44.38;96310.25;10354650;28;20042;-76
2023/03/12 14:22:38;;;;;;;4.82;1.80;;;;;;;19.75;44.39;96308.66;10354051;28;20092;-76
2023/03/12 14:27:58;;;;;;;4.47;2.08;;;;;;;19.73;44.22;96306.31;10338760;28;20039;-78
2023/03/12 14:33:17;;;;;;;5.75;2.20;;;;;;;19.72;43.90;96301.25;10352751;28;20046;-77
2023/03/12 14:38:43;;;;;;;6.60;2.20;;;;;;;19.71;43.94;96299.63;10351781;28;20053;-78
2023/03/12 14:44:21;;;;;;;4.82;2.00;;;;;;;19.68;43.56;96306.50;10351573;28;20057;-78
2023/03/12 14:49:43;;;;;;;3.78;1.80;;;;;;;19.69;44.55;96304.59;10337540;28;20505;-77
2023/03/12 14:55:10;;;;;;;5.32;2.00;;;;;;;19.67;44.56;96296.03;10351190;28;20046;-77
2023/03/12 15:00:30;;;;;;;6.45;2.15;;;;;;;19.65;44.67;96284.78;10350674;28;20042;-77
2023/03/12 15:05:50;;;;;;;5.55;2.15;;;;;;;19.65;44.83;96288.25;10350407;28;20490;-77
2023/03/12 15:11:10;;;;;;;6.80;2.20;;;;;;;19.64;45.06;96277.78;10351185;28;20053;-77
2023/03/12 15:16:30;;;;;;;4.60;2.40;;;;;;;19.63;45.36;96277.00;10351298;28;20046;-78
2023/03/12 15:21:50;;;;;;;3.97;1.90;;;;;;;19.63;45.71;96268.09;10349894;28;20042;-78
2023/03/12 15:27:27;;;;;;;5.05;2.08;;;;;;;19.62;46.34;96258.41;10350999;28;20042;-77
2023/03/12 15:33:06;;;;;;;4.50;1.95;;;;;;;19.61;46.59;96262.25;10350474;28;20053;-78
2023/03/12 15:38:26;;;;;;;4.30;1.90;;;;;;;19.60;46.26;96268.78;10350205;28;20054;-77
2023/03/12 15:43:50;;;;;;;4.07;2.00;;;;;;;19.58;46.21;96250.19;10349283;28;20493;-77
2023/03/12 15:49:33;;;;;;;2.10;1.23;;;;;;;19.56;46.61;96253.25;10350014;28;20054;-77
2023/03/12 15:55:11;;;;;;;3.33;1.70;;;;;;;19.55;46.45;96257.06;10350029;28;20046;-78
2023/03/12 16:00:41;;;;;;;3.80;1.80;;;;;;;19.51;42.46;96256.16;10334724;28;20151;-78
2023/03/12 16:06:01;;;;;;;3.92;1.60;;;;;;;19.47;44.74;96249.06;10348676;28;20077;-78
2023/03/12 16:11:24;;;;;;;3.90;2.08;;;;;;;19.47;45.29;96260.66;10348562;28;20064;-78
2023/03/12 16:16:44;;;;;;;3.40;1.80;;;;;;;19.47;46.16;96243.69;10349089;28;20035;-77
2023/03/12 16:22:03;;;;;;;4.82;1.92;;;;;;;19.47;46.25;96257.97;10348380;28;20047;-77
2023/03/12 16:27:23;;;;;;;4.10;2.00;;;;;;;19.48;46.58;96264.97;10349290;28;20046;-77
2023/03/12 16:32:43;;;;;;;4.40;1.88;;;;;;;19.47;46.86;96260.66;10349292;28;20050;-77
2023/03/12 16:38:02;;;;;;;3.55;1.98;;;;;;;19.46;47.10;96269.88;10348812;28;20038;-77
2023/03/12 16:43:23;;;;;;;3.35;1.90;;;;;;;19.45;47.34;96271.03;10347747;28;20491;-77
2023/03/12 16:48:43;;;;;;;4.85;2.00;;;;;;;19.45;47.48;96275.63;10334066;28;20046;-77
2023/03/12 16:54:03;;;;;;;3.92;1.90;;;;;;;19.44;47.62;96280.22;10335607;28;20054;-77
2023/03/12 16:59:24;;;;;;;4.70;2.08;;;;;;;19.44;48.06;96285.63;10348254;28;20486;-77
2023/03/12 17:04:44;;;;;;;3.50;1.70;;;;;;;19.43;47.77;96286.78;10348433;28;20104;-78
2023/03/12 17:10:04;;;;;;;3.95;2.08;;;;;;;19.42;48.13;96287.88;10348111;28;20088;-78
2023/03/12 17:15:29;;;;;;;3.85;1.90;;;;;;;19.42;48.07;96289.81;10348322;28;20478;-77
2023/03/12 17:20:50;;;;;;;45.20;31.63;;;;;;;19.41;48.29;96297.13;10333267;28;20388;-77
2023/03/12 17:26:10;;;;;;;26.13;16.95;;;;;;;19.40;48.32;96297.47;10362432;28;20070;-78
2023/03/12 17:31:30;;;;;;;20.88;13.57;;;;;;;19.40;48.40;96309.03;10387982;28;20046;-77
2023/03/12 17:36:49;;;;;;;19.10;12.60;;;;;;;19.39;48.51;96318.28;10371708;28;20050;-77
2023/03/12 17:42:09;;;;;;;19.55;12.20;;;;;;;19.39;48.51;96328.31;10387509;28;20042;-78
2023/03/12 17:47:28;;;;;;;16.85;10.93;;;;;;;19.38;48.60;96324.78;10373401;28;20088;-77
2023/03/12 17:52:48;;;;;;;17.25;10.52;;;;;;;19.36;48.54;96324.34;10377983;28;20519;-77
2023/03/12 17:58:07;;;;;;;15.70;10.20;;;;;;;19.35;48.77;96323.56;10386839;28;20052;-77
2023/03/12 18:03:27;;;;;;;17.33;10.80;;;;;;;19.33;48.77;96315.00;10386463;28;20046;-76
2023/03/12 18:08:46;;;;;;;17.25;9.48;;;;;;;19.33;48.84;96319.63;10386658;28;20042;-76
2023/03/12 18:14:06;;;;;;;12.65;8.60;;;;;;;19.32;49.34;96316.13;10385690;28;20054;-76
2023/03/12 18:19:28;;;;;;;12.98;8.55;;;;;;;19.32;49.34;96331.53;10385697;28;20421;-76
2023/03/12 18:24:47;;;;;;;14.10;8.63;;;;;;;19.32;49.90;96342.34;10352911;28;20050;-77
2023/03/12 18:30:10;;;;;;;14.18;8.02;;;;;;;19.31;49.57;96338.06;10346317;28;20101;-78
2023/03/12 18:35:29;;;;;;;15.65;8.05;;;;;;;19.30;49.71;96317.56;10331163;28;20049;-78
2023/03/12 18:40:50;;;;;;;14.65;7.38;;;;;;;19.30;49.58;96320.28;10331279;28;20095;-78
2023/03/12 18:46:10;;;;;;;12.60;7.97;;;;;;;19.28;49.47;96344.13;10347208;28;20046;-78
2023/03/12 18:51:29;;;;;;;12.27;7.88;;;;;;;19.27;49.49;96320.97;10349094;28;20058;-77
2023/03/12 18:56:49;;;;;;;12.65;7.47;;;;;;;19.26;49.55;96330.16;10343609;28;20092;-76
2023/03/12 19:02:09;;;;;;;10.85;7.30;;;;;;;19.25;49.61;96336.69;10355143;28;20414;-75
2023/03/12 19:07:30;;;;;;;11.70;7.57;;;;;;;19.24;49.92;96332.41;10353063;28;20554;-75
2023/03/12 19:12:52;;;;;;;11.80;7.57;;;;;;;19.24;49.92;96335.13;10358875;28;20046;-76
2023/03/12 19:18:11;;;;;;;11.77;6.85;;;;;;;19.24;49.99;96343.22;10348982;28;20050;-77
2023/03/12 19:23:31;;;;;;;12.55;6.75;;;;;;;19.24;50.27;96337.81;10339748;28;20047;-76
2023/03/12 19:28:50;;;;;;;11.43;6.40;;;;;;;19.25;49.97;96334.78;10352444;28;20043;-74
2023/03/12 19:34:10;;;;;;;9.45;6.32;;;;;;;19.26;50.10;96328.25;10355211;28;20053;-75
2023/03/12 19:39:29;;;;;;;10.68;6.97;;;;;;;19.28;49.96;96325.22;10357162;28;20046;-75
2023/03/12 19:44:50;;;;;;;9.93;6.72;;;;;;;19.29;50.17;96329.53;10353974;28;20113;-76
2023/03/12 19:50:11;;;;;;;13.52;6.28;;;;;;;19.31;50.86;96322.66;10351486;28;20058;-75
2023/03/12 19:55:31;;;;;;;10.10;6.07;;;;;;;19.32;50.33;96320.72;10358075;28;20046;-78
2023/03/12 20:00:50;;;;;;;9.15;5.78;;;;;;;19.34;50.29;96326.59;10339880;28;20046;-74
2023/03/12 20:06:11;;;;;;;10.73;6.50;;;;;;;19.36;50.52;96327.81;10343563;28;20105;-77
2023/03/12 20:11:34;;;;;;;9.10;5.78;;;;;;;19.38;50.38;96332.91;10350933;28;20502;-78
2023/03/12 20:16:53;;;;;;;8.60;5.65;;;;;;;19.41;50.49;96336.88;10350939;28;20042;-77
2023/03/12 20:22:13;;;;;;;9.40;5.78;;;;;;;19.42;50.49;96327.63;10358445;28;20478;-78
2023/03/12 20:27:33;;;;;;;9.27;5.47;;;;;;;19.44;50.44;96336.19;10353246;28;20042;-78
2023/03/12 20:32:52;;;;;;;10.35;5.70;;;;;;;19.47;50.53;96338.22;10338985;28;20046;-78
2023/03/12 20:38:12;;;;;;;9.30;5.32;;;;;;;19.49;50.50;96358.38;10352201;28;20054;-79
2023/03/12 20:43:31;;;;;;;9.50;5.38;;;;;;;19.53;50.34;96356.56;10363839;28;20042;-79
2023/03/12 20:48:51;;;;;;;8.73;5.60;;;;;;;19.55;50.39;96365.13;10363085;28;20050;-77
2023/03/12 20:54:11;;;;;;;8.27;5.53;;;;;;;19.60;50.58;96366.03;10351577;28;20058;-78
2023/03/12 20:59:30;;;;;;;7.90;5.28;;;;;;;19.62;50.86;96367.31;10363925;28;20057;-77
2023/03/12 21:04:52;;;;;;;7.47;4.88;;;;;;;19.65;50.31;96371.25;10348575;28;20042;-77
2023/03/12 21:10:12;;;;;;;7.05;4.78;;;;;;;19.68;50.22;96362.44;10348746;28;20057;-78
2023/03/12 21:15:31;;;;;;;6.68;4.93;;;;;;;19.71;50.13;96364.50;10334970;28;20054;-78
2023/03/12 21:20:51;;;;;;;7.55;4.65;;;;;;;19.72;50.14;96358.00;10348439;28;20113;-78
2023/03/12 21:26:10;;;;;;;8.10;4.70;;;;;;;19.75;50.32;96362.72;10333314;28;20049;-77
2023/03/12 21:31:29;;;;;;;5.60;4.40;;;;;;;19.77;50.34;96371.28;10333515;28;20494;-77
2023/03/12 21:36:49;;;;;;;5.97;4.70;;;;;;;19.79;50.62;96368.25;10333579;28;20062;-78
2023/03/12 21:42:08;;;;;;;6.97;4.63;;;;;;;19.81;50.64;96379.53;10346054;28;20039;-79
2023/03/12 21:47:28;;;;;;;6.80;4.63;;;;;;;19.82;50.23;96373.78;10331655;28;20050;-79
2023/03/12 21:52:48;;;;;;;9.25;4.93;;;;;;;19.82;50.13;96367.59;10280720;28;20054;-78
2023/03/12 21:58:10;;;;;;;7.38;4.63;;;;;;;19.83;50.01;96375.34;10305898;28;20407;-78
2023/03/12 22:03:30;;;;;;;4.97;3.92;;;;;;;19.84;49.65;96370.75;10304672;28;20059;-78
2023/03/12 22:08:51;;;;;;;5.95;4.32;;;;;;;19.82;49.71;96357.56;10304720;28;20038;-78
2023/03/12 22:14:10;;;;;;;6.18;4.32;;;;;;;19.84;49.79;96352.59;10290988;28;20550;-78
2023/03/12 22:19:30;;;;;;;5.63;3.83;;;;;;;19.83;49.61;96359.13;10290836;28;20050;-78
2023/03/12 22:24:49;;;;;;;5.70;3.75;;;;;;;19.82;49.54;96352.16;10298499;28;20043;-77
2023/03/12 22:30:11;;;;;;;6.78;4.22;;;;;;;19.84;49.47;96347.22;10312889;28;20046;-77
2023/03/12 22:35:30;;;;;;;5.45;3.50;;;;;;;19.84;49.39;96341.03;10311813;28;20495;-77
2023/03/12 22:40:50;;;;;;;6.45;3.50;;;;;;;19.83;49.27;96334.81;10311645;28;20069;-77
2023/03/12 22:46:10;;;;;;;5.03;4.00;;;;;;;19.83;49.35;96315.09;10311326;28;20042;-77
2023/03/12 22:51:31;;;;;;;5.03;3.55;;;;;;;19.83;49.18;96323.22;10305940;28;20059;-77
2023/03/12 22:56:50;;;;;;;4.72;3.70;;;;;;;19.83;49.16;96318.59;10308656;28;20043;-77
2023/03/12 23:02:10;;;;;;;4.40;3.70;;;;;;;19.82;49.06;96305.44;10309280;28;20054;-77
2023/03/12 23:07:30;;;;;;;5.40;3.78;;;;;;;19.81;49.00;96310.03;10294667;28;20039;-77
2023/03/12 23:12:49;;;;;;;4.97;3.80;;;;;;;19.82;49.03;96292.69;10294587;28;20053;-77
2023/03/12 23:18:10;;;;;;;4.65;3.78;;;;;;;19.81;48.89;96290.31;10307998;28;20082;-78
2023/03/12 23:23:30;;;;;;;4.88;3.42;;;;;;;19.81;49.19;96291.09;10307710;28;20039;-77
2023/03/12 23:28:52;;;;;;;4.05;3.20;;;;;;;19.79;48.95;96271.72;10294032;28;20042;-77
2023/03/12 23:34:11;;;;;;;5.03;3.58;;;;;;;19.79;48.97;96273.66;10295049;28;20405;-77
2023/03/12 23:39:31;;;;;;;4.55;3.47;;;;;;;19.78;49.06;96280.97;10308202;28;20047;-77
2023/03/12 23:44:50;;;;;;;5.78;3.22;;;;;;;19.77;48.90;96289.44;10307045;28;20419;-77
2023/03/12 23:50:10;;;;;;;3.92;3.08;;;;;;;19.75;49.00;96292.47;10252564;28;1164072;-77
2023/03/12 23:55:31;;;;;;;4.15;3.17;;;;;;;19.74;48.74;96294.38;10309809;28;20121;-77
